Terminal Aerodrome Forecast
Issued by NWS

Home | Current Version | Previous Version | Text Only | Print | Product List | Glossary On
Versions: 1 2 3 4 5 6 7 8 9 10 11 12 13 14 15 16
000
FTAK31 PAJN 260500
TAFAJN
TAF
PAJN 260538Z 2606/2706 VRB05KT P6SM SCT110 OVC200
     FM261200 11008KT P6SM BKN050 OVC100
     FM261500 11010KT P6SM VCSH BKN040 OVC080
     FM262100 13015KT P6SM -RA SCT020 BKN040 OVC060
     FM270300 12015KT 5SM -RA BR SCT020 OVC050=

USA.gov is the U.S. government's official web portal to all federal, state and local government web resources and services.